sensor_id;sensor_type;location;lat;lon;timestamp;P1;durP1;ratioP1;P2;durP2;ratioP2
13234;SDS011;6683;48.506;9.050;2023-05-16T00:01:25;3.70;;;3.40;;
13234;SDS011;6683;48.506;9.050;2023-05-16T00:04:29;3.97;;;3.57;;
13234;SDS011;6683;48.506;9.050;2023-05-16T00:07:32;4.73;;;3.50;;
13234;SDS011;6683;48.506;9.050;2023-05-16T00:10:35;3.77;;;3.43;;
13234;SDS011;6683;48.506;9.050;2023-05-16T00:13:38;3.67;;;3.37;;
13234;SDS011;6683;48.506;9.050;2023-05-16T00:16:42;3.37;;;3.07;;
13234;SDS011;6683;48.506;9.050;2023-05-16T00:19:46;3.63;;;3.33;;
13234;SDS011;6683;48.506;9.050;2023-05-16T00:22:49;3.50;;;3.30;;
13234;SDS011;6683;48.506;9.050;2023-05-16T00:25:51;3.47;;;3.17;;
13234;SDS011;6683;48.506;9.050;2023-05-16T00:28:53;3.67;;;3.30;;
13234;SDS011;6683;48.506;9.050;2023-05-16T00:31:57;3.73;;;3.43;;
13234;SDS011;6683;48.506;9.050;2023-05-16T00:34:59;4.37;;;3.97;;
13234;SDS011;6683;48.506;9.050;2023-05-16T00:38:02;3.80;;;3.50;;
13234;SDS011;6683;48.506;9.050;2023-05-16T00:41:04;3.83;;;3.53;;
13234;SDS011;6683;48.506;9.050;2023-05-16T00:44:07;4.83;;;3.30;;
13234;SDS011;6683;48.506;9.050;2023-05-16T00:47:11;3.73;;;3.43;;
13234;SDS011;6683;48.506;9.050;2023-05-16T00:50:15;3.70;;;3.40;;
13234;SDS011;6683;48.506;9.050;2023-05-16T00:53:18;3.70;;;3.27;;
13234;SDS011;6683;48.506;9.050;2023-05-16T00:56:21;3.43;;;3.13;;
13234;SDS011;6683;48.506;9.050;2023-05-16T00:59:23;4.13;;;3.33;;
13234;SDS011;6683;48.506;9.050;2023-05-16T01:02:28;3.87;;;3.57;;
13234;SDS011;6683;48.506;9.050;2023-05-16T01:05:31;3.63;;;3.33;;
13234;SDS011;6683;48.506;9.050;2023-05-16T01:08:34;4.00;;;3.60;;
13234;SDS011;6683;48.506;9.050;2023-05-16T01:11:38;4.23;;;3.83;;
13234;SDS011;6683;48.506;9.050;2023-05-16T01:14:50;4.07;;;3.77;;
13234;SDS011;6683;48.506;9.050;2023-05-16T01:18:11;4.10;;;3.70;;
13234;SDS011;6683;48.506;9.050;2023-05-16T01:21:26;4.23;;;3.83;;
13234;SDS011;6683;48.506;9.050;2023-05-16T01:24:43;3.60;;;3.30;;
13234;SDS011;6683;48.506;9.050;2023-05-16T01:27:56;4.03;;;3.50;;
13234;SDS011;6683;48.506;9.050;2023-05-16T01:31:00;3.87;;;3.57;;
13234;SDS011;6683;48.506;9.050;2023-05-16T01:34:02;3.60;;;3.30;;
13234;SDS011;6683;48.506;9.050;2023-05-16T01:37:06;3.70;;;3.17;;
13234;SDS011;6683;48.506;9.050;2023-05-16T01:40:18;4.00;;;3.57;;
13234;SDS011;6683;48.506;9.050;2023-05-16T01:43:32;4.90;;;3.40;;
13234;SDS011;6683;48.506;9.050;2023-05-16T01:46:42;3.73;;;3.43;;
13234;SDS011;6683;48.506;9.050;2023-05-16T01:49:49;3.83;;;3.40;;
13234;SDS011;6683;48.506;9.050;2023-05-16T01:52:59;3.50;;;3.20;;
13234;SDS011;6683;48.506;9.050;2023-05-16T01:56:09;3.40;;;3.10;;
13234;SDS011;6683;48.506;9.050;2023-05-16T01:59:17;5.10;;;3.33;;
13234;SDS011;6683;48.506;9.050;2023-05-16T02:02:21;2.73;;;2.53;;
13234;SDS011;6683;48.506;9.050;2023-05-16T02:05:24;3.27;;;2.97;;
13234;SDS011;6683;48.506;9.050;2023-05-16T02:08:26;3.27;;;2.80;;
13234;SDS011;6683;48.506;9.050;2023-05-16T02:11:29;4.20;;;3.23;;
13234;SDS011;6683;48.506;9.050;2023-05-16T02:14:34;3.03;;;2.83;;
13234;SDS011;6683;48.506;9.050;2023-05-16T02:17:36;4.03;;;3.40;;
13234;SDS011;6683;48.506;9.050;2023-05-16T02:20:38;3.37;;;3.07;;
13234;SDS011;6683;48.506;9.050;2023-05-16T02:23:40;3.07;;;2.87;;
13234;SDS011;6683;48.506;9.050;2023-05-16T02:26:43;3.13;;;2.93;;
13234;SDS011;6683;48.506;9.050;2023-05-16T02:29:47;3.77;;;3.47;;
13234;SDS011;6683;48.506;9.050;2023-05-16T02:32:49;3.83;;;3.53;;
13234;SDS011;6683;48.506;9.050;2023-05-16T02:35:52;3.63;;;3.23;;
13234;SDS011;6683;48.506;9.050;2023-05-16T02:38:55;4.20;;;3.80;;
13234;SDS011;6683;48.506;9.050;2023-05-16T02:41:57;3.37;;;3.07;;
13234;SDS011;6683;48.506;9.050;2023-05-16T02:45:01;4.03;;;2.87;;
13234;SDS011;6683;48.506;9.050;2023-05-16T02:48:04;3.33;;;3.03;;
13234;SDS011;6683;48.506;9.050;2023-05-16T02:51:07;3.50;;;3.20;;
13234;SDS011;6683;48.506;9.050;2023-05-16T02:54:09;3.40;;;3.10;;
13234;SDS011;6683;48.506;9.050;2023-05-16T02:57:11;7.97;;;3.10;;
13234;SDS011;6683;48.506;9.050;2023-05-16T03:00:16;3.23;;;2.97;;
13234;SDS011;6683;48.506;9.050;2023-05-16T03:03:19;4.50;;;2.97;;
13234;SDS011;6683;48.506;9.050;2023-05-16T03:06:22;3.57;;;3.27;;
13234;SDS011;6683;48.506;9.050;2023-05-16T03:09:24;3.13;;;2.83;;
13234;SDS011;6683;48.506;9.050;2023-05-16T03:12:26;3.47;;;3.17;;
13234;SDS011;6683;48.506;9.050;2023-05-16T03:15:30;3.13;;;2.87;;
13234;SDS011;6683;48.506;9.050;2023-05-16T03:18:32;3.53;;;3.07;;
13234;SDS011;6683;48.506;9.050;2023-05-16T03:21:35;4.10;;;3.60;;
13234;SDS011;6683;48.506;9.050;2023-05-16T03:24:37;3.90;;;3.40;;
13234;SDS011;6683;48.506;9.050;2023-05-16T03:27:39;3.60;;;3.30;;
13234;SDS011;6683;48.506;9.050;2023-05-16T03:30:43;6.23;;;3.47;;
13234;SDS011;6683;48.506;9.050;2023-05-16T03:33:46;3.87;;;3.57;;
13234;SDS011;6683;48.506;9.050;2023-05-16T03:36:48;3.97;;;3.67;;
13234;SDS011;6683;48.506;9.050;2023-05-16T03:39:51;4.87;;;3.50;;
13234;SDS011;6683;48.506;9.050;2023-05-16T03:42:53;3.97;;;3.57;;
13234;SDS011;6683;48.506;9.050;2023-05-16T03:45:57;3.70;;;3.40;;
13234;SDS011;6683;48.506;9.050;2023-05-16T03:49:02;3.87;;;3.43;;
13234;SDS011;6683;48.506;9.050;2023-05-16T03:52:05;4.10;;;3.67;;
13234;SDS011;6683;48.506;9.050;2023-05-16T03:55:08;3.37;;;3.10;;
13234;SDS011;6683;48.506;9.050;2023-05-16T03:58:13;3.93;;;2.93;;
13234;SDS011;6683;48.506;9.050;2023-05-16T04:01:17;3.43;;;3.13;;
13234;SDS011;6683;48.506;9.050;2023-05-16T04:04:19;4.10;;;3.70;;
13234;SDS011;6683;48.506;9.050;2023-05-16T04:07:22;4.17;;;3.87;;
13234;SDS011;6683;48.506;9.050;2023-05-16T04:10:24;4.77;;;3.63;;
13234;SDS011;6683;48.506;9.050;2023-05-16T04:13:27;4.53;;;4.13;;
13234;SDS011;6683;48.506;9.050;2023-05-16T04:16:30;3.97;;;3.63;;
13234;SDS011;6683;48.506;9.050;2023-05-16T04:19:33;4.40;;;3.87;;
13234;SDS011;6683;48.506;9.050;2023-05-16T04:22:35;5.30;;;3.83;;
13234;SDS011;6683;48.506;9.050;2023-05-16T04:25:38;4.80;;;4.00;;
13234;SDS011;6683;48.506;9.050;2023-05-16T04:28:42;4.50;;;4.10;;
13234;SDS011;6683;48.506;9.050;2023-05-16T04:31:46;4.40;;;3.80;;
13234;SDS011;6683;48.506;9.050;2023-05-16T04:34:48;4.80;;;4.30;;
13234;SDS011;6683;48.506;9.050;2023-05-16T04:37:52;6.07;;;4.20;;
13234;SDS011;6683;48.506;9.050;2023-05-16T04:40:54;4.60;;;4.20;;
13234;SDS011;6683;48.506;9.050;2023-05-16T04:43:57;6.00;;;3.97;;
13234;SDS011;6683;48.506;9.050;2023-05-16T04:47:05;4.87;;;4.03;;
13234;SDS011;6683;48.506;9.050;2023-05-16T04:50:08;4.87;;;4.30;;
13234;SDS011;6683;48.506;9.050;2023-05-16T04:53:11;4.07;;;3.77;;
13234;SDS011;6683;48.506;9.050;2023-05-16T04:56:16;4.70;;;4.23;;
13234;SDS011;6683;48.506;9.050;2023-05-16T04:59:19;5.20;;;4.13;;
13234;SDS011;6683;48.506;9.050;2023-05-16T05:02:23;5.17;;;4.60;;
13234;SDS011;6683;48.506;9.050;2023-05-16T05:05:26;5.17;;;4.47;;
13234;SDS011;6683;48.506;9.050;2023-05-16T05:08:28;5.37;;;4.87;;
13234;SDS011;6683;48.506;9.050;2023-05-16T05:11:31;6.00;;;5.40;;
13234;SDS011;6683;48.506;9.050;2023-05-16T05:14:33;6.20;;;5.60;;
13234;SDS011;6683;48.506;9.050;2023-05-16T05:17:37;6.73;;;6.03;;
13234;SDS011;6683;48.506;9.050;2023-05-16T05:20:39;7.20;;;6.43;;
13234;SDS011;6683;48.506;9.050;2023-05-16T05:23:42;6.90;;;6.20;;
13234;SDS011;6683;48.506;9.050;2023-05-16T05:26:45;8.50;;;7.60;;
13234;SDS011;6683;48.506;9.050;2023-05-16T05:29:47;9.30;;;7.90;;
13234;SDS011;6683;48.506;9.050;2023-05-16T05:32:52;9.43;;;8.30;;
13234;SDS011;6683;48.506;9.050;2023-05-16T05:35:55;9.03;;;7.73;;
13234;SDS011;6683;48.506;9.050;2023-05-16T05:38:58;9.43;;;8.50;;
13234;SDS011;6683;48.506;9.050;2023-05-16T05:42:00;11.43;;;9.13;;
13234;SDS011;6683;48.506;9.050;2023-05-16T05:45:04;11.30;;;8.97;;
13234;SDS011;6683;48.506;9.050;2023-05-16T05:48:08;12.00;;;10.17;;
13234;SDS011;6683;48.506;9.050;2023-05-16T05:51:12;11.27;;;9.83;;
13234;SDS011;6683;48.506;9.050;2023-05-16T05:54:15;12.50;;;10.13;;
13234;SDS011;6683;48.506;9.050;2023-05-16T05:57:17;11.77;;;10.40;;
13234;SDS011;6683;48.506;9.050;2023-05-16T06:00:20;11.93;;;10.60;;
13234;SDS011;6683;48.506;9.050;2023-05-16T06:03:24;14.33;;;11.10;;
13234;SDS011;6683;48.506;9.050;2023-05-16T06:06:27;14.27;;;12.70;;
13234;SDS011;6683;48.506;9.050;2023-05-16T06:09:30;14.90;;;12.17;;
13234;SDS011;6683;48.506;9.050;2023-05-16T06:12:32;13.63;;;11.97;;
13234;SDS011;6683;48.506;9.050;2023-05-16T06:15:35;15.87;;;12.37;;
13234;SDS011;6683;48.506;9.050;2023-05-16T06:18:39;16.80;;;13.13;;
13234;SDS011;6683;48.506;9.050;2023-05-16T06:21:41;19.03;;;15.23;;
13234;SDS011;6683;48.506;9.050;2023-05-16T06:24:44;19.30;;;15.43;;
13234;SDS011;6683;48.506;9.050;2023-05-16T06:27:46;17.40;;;15.50;;
13234;SDS011;6683;48.506;9.050;2023-05-16T06:30:49;20.23;;;15.40;;
13234;SDS011;6683;48.506;9.050;2023-05-16T06:33:52;22.97;;;15.97;;
13234;SDS011;6683;48.506;9.050;2023-05-16T06:36:55;21.63;;;17.10;;
13234;SDS011;6683;48.506;9.050;2023-05-16T06:39:58;23.40;;;18.23;;
13234;SDS011;6683;48.506;9.050;2023-05-16T06:43:01;25.73;;;18.43;;
13234;SDS011;6683;48.506;9.050;2023-05-16T06:46:03;25.27;;;20.70;;
13234;SDS011;6683;48.506;9.050;2023-05-16T06:49:07;21.27;;;18.30;;
13234;SDS011;6683;48.506;9.050;2023-05-16T06:52:10;25.60;;;20.83;;
13234;SDS011;6683;48.506;9.050;2023-05-16T06:55:12;27.20;;;21.73;;
13234;SDS011;6683;48.506;9.050;2023-05-16T06:58:23;26.40;;;19.53;;
13234;SDS011;6683;48.506;9.050;2023-05-16T07:01:26;25.03;;;19.10;;
13234;SDS011;6683;48.506;9.050;2023-05-16T07:04:30;23.47;;;18.97;;
13234;SDS011;6683;48.506;9.050;2023-05-16T07:07:33;24.07;;;19.47;;
13234;SDS011;6683;48.506;9.050;2023-05-16T07:10:36;24.73;;;19.63;;
13234;SDS011;6683;48.506;9.050;2023-05-16T07:13:39;25.73;;;18.00;;
13234;SDS011;6683;48.506;9.050;2023-05-16T07:16:41;22.83;;;18.60;;
13234;SDS011;6683;48.506;9.050;2023-05-16T07:19:45;21.00;;;17.20;;
13234;SDS011;6683;48.506;9.050;2023-05-16T07:22:47;19.73;;;17.37;;
13234;SDS011;6683;48.506;9.050;2023-05-16T07:25:50;18.53;;;16.33;;
13234;SDS011;6683;48.506;9.050;2023-05-16T07:28:52;18.27;;;15.93;;
13234;SDS011;6683;48.506;9.050;2023-05-16T07:31:55;17.33;;;14.80;;
13234;SDS011;6683;48.506;9.050;2023-05-16T07:35:00;17.57;;;14.57;;
13234;SDS011;6683;48.506;9.050;2023-05-16T07:38:03;16.77;;;13.50;;
13234;SDS011;6683;48.506;9.050;2023-05-16T07:41:05;16.20;;;14.13;;
13234;SDS011;6683;48.506;9.050;2023-05-16T07:44:08;16.07;;;14.17;;
13234;SDS011;6683;48.506;9.050;2023-05-16T07:47:10;16.80;;;14.00;;
13234;SDS011;6683;48.506;9.050;2023-05-16T07:50:14;14.97;;;13.37;;
13234;SDS011;6683;48.506;9.050;2023-05-16T07:53:17;15.37;;;13.67;;
13234;SDS011;6683;48.506;9.050;2023-05-16T07:56:19;16.00;;;14.30;;
13234;SDS011;6683;48.506;9.050;2023-05-16T07:59:22;14.53;;;12.90;;
13234;SDS011;6683;48.506;9.050;2023-05-16T08:02:25;15.47;;;13.83;;
13234;SDS011;6683;48.506;9.050;2023-05-16T08:05:31;15.03;;;13.23;;
13234;SDS011;6683;48.506;9.050;2023-05-16T08:08:33;15.40;;;13.80;;
13234;SDS011;6683;48.506;9.050;2023-05-16T08:11:36;15.10;;;13.00;;
13234;SDS011;6683;48.506;9.050;2023-05-16T08:14:39;15.03;;;13.30;;
13234;SDS011;6683;48.506;9.050;2023-05-16T08:17:41;16.10;;;12.87;;
13234;SDS011;6683;48.506;9.050;2023-05-16T08:20:46;14.87;;;12.50;;
13234;SDS011;6683;48.506;9.050;2023-05-16T08:23:48;12.17;;;10.97;;
13234;SDS011;6683;48.506;9.050;2023-05-16T08:26:50;15.30;;;11.63;;
13234;SDS011;6683;48.506;9.050;2023-05-16T08:29:53;12.80;;;10.37;;
13234;SDS011;6683;48.506;9.050;2023-05-16T08:32:55;11.53;;;9.47;;
13234;SDS011;6683;48.506;9.050;2023-05-16T08:35:59;10.03;;;9.03;;
13234;SDS011;6683;48.506;9.050;2023-05-16T08:39:02;10.70;;;9.60;;
13234;SDS011;6683;48.506;9.050;2023-05-16T08:42:05;9.93;;;8.93;;
13234;SDS011;6683;48.506;9.050;2023-05-16T08:45:09;10.17;;;9.13;;
13234;SDS011;6683;48.506;9.050;2023-05-16T08:48:12;11.03;;;9.33;;
13234;SDS011;6683;48.506;9.050;2023-05-16T08:51:19;10.67;;;9.23;;
13234;SDS011;6683;48.506;9.050;2023-05-16T08:54:22;12.43;;;9.87;;
13234;SDS011;6683;48.506;9.050;2023-05-16T08:57:25;10.73;;;9.63;;
13234;SDS011;6683;48.506;9.050;2023-05-16T09:00:29;10.10;;;8.97;;
13234;SDS011;6683;48.506;9.050;2023-05-16T09:03:32;12.77;;;8.77;;
13234;SDS011;6683;48.506;9.050;2023-05-16T09:06:36;10.10;;;8.80;;
13234;SDS011;6683;48.506;9.050;2023-05-16T09:09:40;11.07;;;9.77;;
13234;SDS011;6683;48.506;9.050;2023-05-16T09:12:43;10.10;;;8.87;;
13234;SDS011;6683;48.506;9.050;2023-05-16T09:15:45;11.27;;;9.10;;
13234;SDS011;6683;48.506;9.050;2023-05-16T09:19:12;10.90;;;9.63;;
13234;SDS011;6683;48.506;9.050;2023-05-16T09:22:17;11.27;;;9.97;;
13234;SDS011;6683;48.506;9.050;2023-05-16T09:25:19;9.83;;;8.90;;
13234;SDS011;6683;48.506;9.050;2023-05-16T09:28:24;11.07;;;9.67;;
13234;SDS011;6683;48.506;9.050;2023-05-16T09:31:27;10.80;;;9.37;;
13234;SDS011;6683;48.506;9.050;2023-05-16T09:34:37;11.33;;;9.60;;
13234;SDS011;6683;48.506;9.050;2023-05-16T09:37:45;13.27;;;10.97;;
13234;SDS011;6683;48.506;9.050;2023-05-16T09:40:48;10.67;;;9.57;;
13234;SDS011;6683;48.506;9.050;2023-05-16T09:43:51;10.57;;;9.47;;
13234;SDS011;6683;48.506;9.050;2023-05-16T09:46:54;10.50;;;9.37;;
13234;SDS011;6683;48.506;9.050;2023-05-16T09:49:57;12.80;;;10.27;;
13234;SDS011;6683;48.506;9.050;2023-05-16T09:53:02;11.53;;;10.43;;
13234;SDS011;6683;48.506;9.050;2023-05-16T09:56:06;9.83;;;8.83;;
13234;SDS011;6683;48.506;9.050;2023-05-16T09:59:13;12.33;;;10.67;;
13234;SDS011;6683;48.506;9.050;2023-05-16T10:02:15;12.57;;;11.00;;
13234;SDS011;6683;48.506;9.050;2023-05-16T10:05:18;12.03;;;10.67;;
13234;SDS011;6683;48.506;9.050;2023-05-16T10:08:23;14.10;;;11.27;;
13234;SDS011;6683;48.506;9.050;2023-05-16T10:11:27;12.10;;;10.73;;
13234;SDS011;6683;48.506;9.050;2023-05-16T10:14:32;10.87;;;9.77;;
13234;SDS011;6683;48.506;9.050;2023-05-16T10:17:38;12.37;;;10.13;;
13234;SDS011;6683;48.506;9.050;2023-05-16T10:20:45;12.43;;;11.03;;
13234;SDS011;6683;48.506;9.050;2023-05-16T10:23:51;14.10;;;10.37;;
13234;SDS011;6683;48.506;9.050;2023-05-16T10:26:57;11.43;;;10.23;;
13234;SDS011;6683;48.506;9.050;2023-05-16T10:30:00;11.57;;;10.47;;
13234;SDS011;6683;48.506;9.050;2023-05-16T10:33:04;12.30;;;10.13;;
13234;SDS011;6683;48.506;9.050;2023-05-16T10:36:07;12.17;;;10.40;;
13234;SDS011;6683;48.506;9.050;2023-05-16T10:39:14;13.17;;;10.23;;
13234;SDS011;6683;48.506;9.050;2023-05-16T10:42:17;11.53;;;10.33;;
13234;SDS011;6683;48.506;9.050;2023-05-16T10:45:20;12.73;;;10.97;;
13234;SDS011;6683;48.506;9.050;2023-05-16T10:48:33;11.80;;;10.10;;
13234;SDS011;6683;48.506;9.050;2023-05-16T10:51:38;11.40;;;10.17;;
13234;SDS011;6683;48.506;9.050;2023-05-16T10:54:42;10.90;;;9.53;;
13234;SDS011;6683;48.506;9.050;2023-05-16T10:57:51;12.57;;;9.40;;
13234;SDS011;6683;48.506;9.050;2023-05-16T11:04:22;12.67;;;10.63;;
13234;SDS011;6683;48.506;9.050;2023-05-16T11:07:25;10.93;;;9.87;;
13234;SDS011;6683;48.506;9.050;2023-05-16T11:10:34;13.77;;;10.63;;
13234;SDS011;6683;48.506;9.050;2023-05-16T11:13:36;12.03;;;9.97;;
13234;SDS011;6683;48.506;9.050;2023-05-16T11:16:59;12.03;;;10.10;;
13234;SDS011;6683;48.506;9.050;2023-05-16T11:20:03;11.47;;;10.33;;
13234;SDS011;6683;48.506;9.050;2023-05-16T11:23:21;11.43;;;10.23;;
13234;SDS011;6683;48.506;9.050;2023-05-16T11:26:27;12.77;;;10.33;;
13234;SDS011;6683;48.506;9.050;2023-05-16T11:29:32;12.30;;;11.00;;
13234;SDS011;6683;48.506;9.050;2023-05-16T11:32:36;12.40;;;11.23;;
13234;SDS011;6683;48.506;9.050;2023-05-16T11:35:41;13.23;;;11.20;;
13234;SDS011;6683;48.506;9.050;2023-05-16T11:38:45;12.63;;;11.33;;
13234;SDS011;6683;48.506;9.050;2023-05-16T11:41:48;13.40;;;11.47;;
13234;SDS011;6683;48.506;9.050;2023-05-16T11:45:02;13.00;;;11.23;;
13234;SDS011;6683;48.506;9.050;2023-05-16T11:48:07;13.60;;;11.07;;
13234;SDS011;6683;48.506;9.050;2023-05-16T11:51:11;12.87;;;10.93;;
13234;SDS011;6683;48.506;9.050;2023-05-16T11:54:17;13.90;;;11.67;;
13234;SDS011;6683;48.506;9.050;2023-05-16T11:57:21;12.47;;;11.17;;
13234;SDS011;6683;48.506;9.050;2023-05-16T12:00:24;14.17;;;10.50;;
13234;SDS011;6683;48.506;9.050;2023-05-16T12:03:28;13.70;;;12.20;;
13234;SDS011;6683;48.506;9.050;2023-05-16T12:06:32;12.20;;;11.00;;
13234;SDS011;6683;48.506;9.050;2023-05-16T12:09:35;14.30;;;11.83;;
13234;SDS011;6683;48.506;9.050;2023-05-16T12:12:40;12.80;;;10.97;;
13234;SDS011;6683;48.506;9.050;2023-05-16T12:15:44;9.33;;;8.43;;
13234;SDS011;6683;48.506;9.050;2023-05-16T12:18:49;8.10;;;7.10;;
13234;SDS011;6683;48.506;9.050;2023-05-16T12:21:52;9.10;;;7.33;;
13234;SDS011;6683;48.506;9.050;2023-05-16T12:24:55;7.87;;;6.53;;
13234;SDS011;6683;48.506;9.050;2023-05-16T12:28:03;6.67;;;5.97;;
13234;SDS011;6683;48.506;9.050;2023-05-16T12:31:10;10.17;;;5.97;;
13234;SDS011;6683;48.506;9.050;2023-05-16T12:34:19;9.03;;;6.53;;
13234;SDS011;6683;48.506;9.050;2023-05-16T12:37:22;6.37;;;5.73;;
13234;SDS011;6683;48.506;9.050;2023-05-16T12:40:27;6.80;;;6.10;;
13234;SDS011;6683;48.506;9.050;2023-05-16T12:43:32;6.63;;;5.87;;
13234;SDS011;6683;48.506;9.050;2023-05-16T12:46:34;8.13;;;6.73;;
13234;SDS011;6683;48.506;9.050;2023-05-16T12:49:43;8.17;;;6.23;;
13234;SDS011;6683;48.506;9.050;2023-05-16T12:52:47;7.60;;;6.30;;
13234;SDS011;6683;48.506;9.050;2023-05-16T12:55:51;7.23;;;5.53;;
13234;SDS011;6683;48.506;9.050;2023-05-16T12:58:55;5.40;;;4.90;;
13234;SDS011;6683;48.506;9.050;2023-05-16T13:01:57;6.43;;;5.63;;
13234;SDS011;6683;48.506;9.050;2023-05-16T13:05:00;5.57;;;5.07;;
13234;SDS011;6683;48.506;9.050;2023-05-16T13:08:03;5.70;;;5.10;;
13234;SDS011;6683;48.506;9.050;2023-05-16T13:11:06;6.23;;;5.60;;
13234;SDS011;6683;48.506;9.050;2023-05-16T13:17:43;7.07;;;5.53;;
13234;SDS011;6683;48.506;9.050;2023-05-16T13:20:47;7.33;;;6.30;;
13234;SDS011;6683;48.506;9.050;2023-05-16T13:23:50;5.97;;;5.33;;
13234;SDS011;6683;48.506;9.050;2023-05-16T13:26:52;6.93;;;5.33;;
13234;SDS011;6683;48.506;9.050;2023-05-16T13:29:54;5.67;;;5.07;;
13234;SDS011;6683;48.506;9.050;2023-05-16T13:32:59;4.00;;;3.60;;
13234;SDS011;6683;48.506;9.050;2023-05-16T13:36:01;3.50;;;3.20;;
13234;SDS011;6683;48.506;9.050;2023-05-16T13:39:04;3.37;;;3.07;;
13234;SDS011;6683;48.506;9.050;2023-05-16T13:42:07;3.57;;;2.80;;
13234;SDS011;6683;48.506;9.050;2023-05-16T13:45:10;3.13;;;2.83;;
13234;SDS011;6683;48.506;9.050;2023-05-16T13:48:14;3.30;;;3.10;;
13234;SDS011;6683;48.506;9.050;2023-05-16T13:51:17;3.37;;;2.87;;
13234;SDS011;6683;48.506;9.050;2023-05-16T13:54:20;3.60;;;3.30;;
13234;SDS011;6683;48.506;9.050;2023-05-16T13:57:22;4.23;;;3.10;;
13234;SDS011;6683;48.506;9.050;2023-05-16T14:00:26;3.27;;;2.90;;
13234;SDS011;6683;48.506;9.050;2023-05-16T14:03:31;4.23;;;3.30;;
13234;SDS011;6683;48.506;9.050;2023-05-16T14:06:35;3.50;;;3.20;;
13234;SDS011;6683;48.506;9.050;2023-05-16T14:09:38;3.70;;;3.10;;
13234;SDS011;6683;48.506;9.050;2023-05-16T14:12:41;3.57;;;3.27;;
13234;SDS011;6683;48.506;9.050;2023-05-16T14:15:43;3.73;;;3.37;;
13234;SDS011;6683;48.506;9.050;2023-05-16T14:18:47;3.13;;;2.80;;
13234;SDS011;6683;48.506;9.050;2023-05-16T14:21:50;2.87;;;2.47;;
13234;SDS011;6683;48.506;9.050;2023-05-16T14:24:53;3.87;;;3.00;;
13234;SDS011;6683;48.506;9.050;2023-05-16T14:27:56;3.27;;;2.50;;
13234;SDS011;6683;48.506;9.050;2023-05-16T14:30:58;3.27;;;2.40;;
13234;SDS011;6683;48.506;9.050;2023-05-16T14:34:03;4.27;;;2.40;;
13234;SDS011;6683;48.506;9.050;2023-05-16T14:37:05;2.87;;;2.57;;
13234;SDS011;6683;48.506;9.050;2023-05-16T14:40:09;2.60;;;2.10;;
13234;SDS011;6683;48.506;9.050;2023-05-16T14:43:12;2.37;;;2.17;;
13234;SDS011;6683;48.506;9.050;2023-05-16T14:46:15;2.30;;;2.10;;
13234;SDS011;6683;48.506;9.050;2023-05-16T14:49:19;2.83;;;1.77;;
13234;SDS011;6683;48.506;9.050;2023-05-16T14:52:22;2.43;;;2.10;;
13234;SDS011;6683;48.506;9.050;2023-05-16T14:55:24;2.60;;;2.17;;
13234;SDS011;6683;48.506;9.050;2023-05-16T14:58:26;2.90;;;2.00;;
13234;SDS011;6683;48.506;9.050;2023-05-16T15:01:29;2.20;;;1.77;;
13234;SDS011;6683;48.506;9.050;2023-05-16T15:04:32;2.13;;;1.80;;
13234;SDS011;6683;48.506;9.050;2023-05-16T15:07:35;2.03;;;1.70;;
13234;SDS011;6683;48.506;9.050;2023-05-16T15:10:37;2.80;;;1.67;;
13234;SDS011;6683;48.506;9.050;2023-05-16T15:13:40;2.50;;;1.60;;
13234;SDS011;6683;48.506;9.050;2023-05-16T15:16:42;2.30;;;1.63;;
13234;SDS011;6683;48.506;9.050;2023-05-16T15:19:47;2.70;;;1.70;;
13234;SDS011;6683;48.506;9.050;2023-05-16T15:22:52;2.17;;;1.80;;
13234;SDS011;6683;48.506;9.050;2023-05-16T15:25:54;5.23;;;2.03;;
13234;SDS011;6683;48.506;9.050;2023-05-16T15:28:57;2.07;;;1.50;;
13234;SDS011;6683;48.506;9.050;2023-05-16T15:32:02;2.20;;;1.73;;
13234;SDS011;6683;48.506;9.050;2023-05-16T15:35:07;3.07;;;1.60;;
13234;SDS011;6683;48.506;9.050;2023-05-16T15:38:10;2.47;;;1.90;;
13234;SDS011;6683;48.506;9.050;2023-05-16T15:41:13;4.90;;;2.10;;
13234;SDS011;6683;48.506;9.050;2023-05-16T15:44:15;2.50;;;2.10;;
13234;SDS011;6683;48.506;9.050;2023-05-16T15:47:18;1.97;;;1.57;;
13234;SDS011;6683;48.506;9.050;2023-05-16T15:50:22;2.27;;;1.50;;
13234;SDS011;6683;48.506;9.050;2023-05-16T15:53:24;2.73;;;1.60;;
13234;SDS011;6683;48.506;9.050;2023-05-16T15:56:27;1.90;;;1.53;;
13234;SDS011;6683;48.506;9.050;2023-05-16T15:59:30;2.10;;;1.70;;
13234;SDS011;6683;48.506;9.050;2023-05-16T16:02:32;3.37;;;2.13;;
13234;SDS011;6683;48.506;9.050;2023-05-16T16:05:36;2.63;;;1.77;;
13234;SDS011;6683;48.506;9.050;2023-05-16T16:08:38;7.73;;;2.10;;
13234;SDS011;6683;48.506;9.050;2023-05-16T16:11:41;2.90;;;1.60;;
13234;SDS011;6683;48.506;9.050;2023-05-16T16:14:43;2.47;;;1.90;;
13234;SDS011;6683;48.506;9.050;2023-05-16T16:17:48;2.70;;;1.70;;
13234;SDS011;6683;48.506;9.050;2023-05-16T16:20:52;3.20;;;1.50;;
13234;SDS011;6683;48.506;9.050;2023-05-16T16:23:55;2.50;;;1.70;;
13234;SDS011;6683;48.506;9.050;2023-05-16T16:26:57;1.53;;;1.40;;
13234;SDS011;6683;48.506;9.050;2023-05-16T16:30:00;3.03;;;1.60;;
13234;SDS011;6683;48.506;9.050;2023-05-16T16:33:02;3.30;;;1.40;;
13234;SDS011;6683;48.506;9.050;2023-05-16T16:36:07;3.17;;;1.60;;
13234;SDS011;6683;48.506;9.050;2023-05-16T16:39:10;3.17;;;1.60;;
13234;SDS011;6683;48.506;9.050;2023-05-16T16:42:12;3.93;;;1.60;;
13234;SDS011;6683;48.506;9.050;2023-05-16T16:45:15;4.23;;;1.93;;
13234;SDS011;6683;48.506;9.050;2023-05-16T16:48:18;2.90;;;1.60;;
13234;SDS011;6683;48.506;9.050;2023-05-16T16:51:21;2.10;;;1.50;;
13234;SDS011;6683;48.506;9.050;2023-05-16T16:54:24;3.90;;;1.70;;
13234;SDS011;6683;48.506;9.050;2023-05-16T16:57:27;4.50;;;1.40;;
13234;SDS011;6683;48.506;9.050;2023-05-16T17:00:29;1.80;;;1.57;;
13234;SDS011;6683;48.506;9.050;2023-05-16T17:03:32;3.53;;;1.60;;
13234;SDS011;6683;48.506;9.050;2023-05-16T17:06:35;2.67;;;1.50;;
13234;SDS011;6683;48.506;9.050;2023-05-16T17:09:38;5.03;;;1.43;;
13234;SDS011;6683;48.506;9.050;2023-05-16T17:12:42;2.37;;;1.20;;
13234;SDS011;6683;48.506;9.050;2023-05-16T17:15:48;3.17;;;1.70;;
13234;SDS011;6683;48.506;9.050;2023-05-16T17:18:51;3.40;;;1.50;;
13234;SDS011;6683;48.506;9.050;2023-05-16T17:21:55;2.87;;;1.40;;
13234;SDS011;6683;48.506;9.050;2023-05-16T17:24:57;2.87;;;1.33;;
13234;SDS011;6683;48.506;9.050;2023-05-16T17:28:00;2.10;;;1.27;;
13234;SDS011;6683;48.506;9.050;2023-05-16T17:31:02;4.60;;;3.07;;
13234;SDS011;6683;48.506;9.050;2023-05-16T17:34:05;2.43;;;1.30;;
13234;SDS011;6683;48.506;9.050;2023-05-16T17:37:09;3.37;;;1.43;;
13234;SDS011;6683;48.506;9.050;2023-05-16T17:40:12;2.93;;;1.53;;
13234;SDS011;6683;48.506;9.050;2023-05-16T17:43:16;4.03;;;2.00;;
13234;SDS011;6683;48.506;9.050;2023-05-16T17:46:20;1.40;;;1.30;;
13234;SDS011;6683;48.506;9.050;2023-05-16T17:49:23;3.33;;;1.50;;
13234;SDS011;6683;48.506;9.050;2023-05-16T17:52:28;2.47;;;1.50;;
13234;SDS011;6683;48.506;9.050;2023-05-16T17:55:30;3.33;;;1.30;;
13234;SDS011;6683;48.506;9.050;2023-05-16T17:58:32;3.87;;;1.40;;
13234;SDS011;6683;48.506;9.050;2023-05-16T18:01:35;2.67;;;1.37;;
13234;SDS011;6683;48.506;9.050;2023-05-16T18:04:38;3.10;;;1.60;;
13234;SDS011;6683;48.506;9.050;2023-05-16T18:07:42;2.37;;;1.20;;
13234;SDS011;6683;48.506;9.050;2023-05-16T18:10:45;4.33;;;1.53;;
13234;SDS011;6683;48.506;9.050;2023-05-16T18:13:47;3.90;;;1.50;;
13234;SDS011;6683;48.506;9.050;2023-05-16T18:16:50;2.13;;;1.20;;
13234;SDS011;6683;48.506;9.050;2023-05-16T18:19:53;3.93;;;1.60;;
13234;SDS011;6683;48.506;9.050;2023-05-16T18:22:57;1.63;;;1.27;;
13234;SDS011;6683;48.506;9.050;2023-05-16T18:25:59;3.67;;;1.30;;
13234;SDS011;6683;48.506;9.050;2023-05-16T18:29:02;1.73;;;1.27;;
13234;SDS011;6683;48.506;9.050;2023-05-16T18:32:05;3.57;;;1.37;;
13234;SDS011;6683;48.506;9.050;2023-05-16T18:35:08;2.27;;;1.20;;
13234;SDS011;6683;48.506;9.050;2023-05-16T18:38:13;2.00;;;1.20;;
13234;SDS011;6683;48.506;9.050;2023-05-16T18:41:16;3.87;;;1.40;;